createdAt,value
2019-01-31T00:00:44.801Z,70.74
2019-01-31T00:04:18.483Z,71.13
2019-01-31T00:07:52.224Z,71.09
2019-01-31T00:11:31.820Z,70.87
2019-01-31T00:14:50.653Z,71.21
2019-01-31T00:18:46.112Z,71.49
2019-01-31T00:22:37.989Z,70.74
2019-01-31T00:26:22.334Z,70.31
2019-01-31T00:29:59.339Z,70.32
2019-01-31T00:33:19.105Z,70.67
2019-01-31T00:36:47.817Z,70.88
2019-01-31T00:40:23.930Z,71.12
2019-01-31T00:44:21.582Z,70.89
2019-01-31T00:48:00.435Z,70.78
2019-01-31T00:51:37.700Z,70.31
2019-01-31T00:55:21.160Z,71.19
2019-01-31T00:59:04.468Z,71.53
2019-01-31T01:02:44.729Z,71.32
2019-01-31T01:06:23.475Z,72.07
2019-01-31T01:09:59.204Z,71.40
2019-01-31T01:13:52.096Z,70.92
2019-01-31T01:17:16.615Z,70.83
2019-01-31T01:20:41.894Z,70.71
2019-01-31T01:24:02.676Z,70.96
2019-01-31T01:27:42.926Z,70.29
2019-01-31T01:31:41.860Z,70.22
2019-01-31T01:35:34.450Z,70.14
2019-01-31T01:39:19.255Z,70.17
2019-01-31T01:42:42.107Z,70.30
2019-01-31T01:46:26.426Z,70.78
2019-01-31T01:50:02.392Z,70.67
2019-01-31T01:53:59.093Z,72.36
2019-01-31T01:57:35.295Z,71.58
2019-01-31T02:01:25.294Z,70.52
2019-01-31T02:05:09.560Z,70.92
2019-01-31T02:09:04.658Z,70.45
2019-01-31T02:12:42.159Z,70.33
2019-01-31T02:16:23.485Z,70.11
2019-01-31T02:20:18.745Z,70.65
2019-01-31T02:23:43.660Z,70.51
2019-01-31T02:27:13.413Z,70.50
2019-01-31T02:31:02.383Z,70.03
2019-01-31T02:34:48.267Z,69.75
2019-01-31T02:38:07.915Z,69.63
2019-01-31T02:41:29.231Z,71.57
2019-01-31T02:45:02.444Z,71.46
2019-01-31T02:48:18.132Z,70.49
2019-01-31T02:51:49.793Z,70.21
2019-01-31T02:55:39.319Z,70.16
2019-01-31T02:59:18.467Z,69.73
2019-01-31T03:02:40.599Z,69.99
2019-01-31T03:06:14.120Z,69.44
2019-01-31T03:10:03.906Z,71.13
2019-01-31T03:13:35.821Z,70.19
2019-01-31T03:17:17.157Z,70.25
2019-01-31T03:20:42.983Z,70.44
2019-01-31T03:24:30.428Z,72.32
2019-01-31T03:28:32.503Z,71.49
2019-01-31T03:32:03.916Z,72.80
2019-01-31T03:35:36.332Z,71.84
2019-01-31T03:39:26.905Z,70.97
2019-01-31T03:43:19.051Z,71.22
2019-01-31T03:47:08.328Z,71.40
2019-01-31T03:51:03.487Z,71.74
2019-01-31T03:54:53.798Z,70.94
2019-01-31T03:58:27.428Z,71.55
2019-01-31T04:01:49.152Z,71.69
2019-01-31T04:05:34.916Z,71.02
2019-01-31T04:08:40.886Z,70.58
2019-01-31T04:11:46.946Z,71.10
2019-01-31T04:14:52.802Z,71.95
2019-01-31T04:17:58.709Z,71.62
2019-01-31T04:21:04.651Z,71.79
2019-01-31T04:24:10.729Z,72.11
2019-01-31T04:27:16.607Z,71.80
2019-01-31T04:30:22.667Z,72.71
2019-01-31T04:33:28.622Z,72.13
2019-01-31T04:36:34.570Z,71.98
2019-01-31T04:39:40.432Z,71.67
2019-01-31T04:42:46.395Z,72.24
2019-01-31T04:45:52.257Z,71.62
2019-01-31T04:48:58.266Z,72.28
2019-01-31T04:52:05.312Z,72.02
2019-01-31T04:55:11.372Z,72.38
2019-01-31T04:58:17.216Z,71.95
2019-01-31T05:01:23.062Z,71.61
2019-01-31T05:04:28.913Z,71.49
2019-01-31T05:07:34.769Z,73.19
2019-01-31T05:10:43.327Z,72.33
2019-01-31T05:13:48.258Z,72.53
2019-01-31T05:16:54.089Z,71.22
2019-01-31T05:19:59.983Z,70.48
2019-01-31T05:23:06.019Z,70.08
2019-01-31T05:26:11.922Z,70.42
2019-01-31T05:29:17.837Z,70.22
2019-01-31T05:32:23.736Z,70.06
2019-01-31T05:35:29.777Z,69.74
2019-01-31T05:38:35.630Z,69.76
2019-01-31T05:41:41.613Z,71.47
2019-01-31T05:44:47.676Z,70.77
2019-01-31T05:47:53.502Z,73.20
2019-01-31T05:50:59.370Z,72.83
2019-01-31T05:54:05.535Z,74.47
2019-01-31T05:57:11.474Z,72.82
2019-01-31T06:00:22.599Z,71.48
2019-01-31T06:03:28.482Z,70.99
2019-01-31T06:06:34.358Z,73.76
2019-01-31T06:09:40.198Z,72.20
2019-01-31T06:12:46.182Z,71.95
2019-01-31T06:15:52.013Z,71.59
2019-01-31T06:18:57.895Z,71.08
2019-01-31T06:22:03.861Z,72.38
2019-01-31T06:25:09.923Z,71.24
2019-01-31T06:28:15.783Z,71.14
2019-01-31T06:31:21.640Z,72.36
2019-01-31T06:34:27.492Z,72.68
2019-01-31T06:37:33.350Z,72.87
2019-01-31T06:40:39.284Z,72.13
2019-01-31T06:43:45.136Z,71.66
2019-01-31T06:46:51.027Z,71.70
2019-01-31T06:49:56.879Z,71.29
2019-01-31T06:53:02.778Z,71.36
2019-01-31T06:56:08.732Z,73.01
2019-01-31T06:59:14.744Z,72.26
2019-01-31T07:02:20.618Z,73.01
2019-01-31T07:05:26.445Z,72.42
2019-01-31T07:08:32.279Z,73.84
2019-01-31T07:11:38.239Z,72.25
2019-01-31T07:14:44.096Z,71.86
2019-01-31T07:17:50.236Z,72.80
2019-01-31T07:20:56.196Z,74.67
2019-01-31T07:24:02.172Z,71.84
2019-01-31T07:27:07.994Z,71.81
2019-01-31T07:30:14.950Z,72.84
2019-01-31T07:33:20.808Z,73.93
2019-01-31T07:36:26.790Z,73.07
2019-01-31T07:39:32.734Z,72.29
2019-01-31T07:42:38.604Z,71.42
2019-01-31T07:45:44.719Z,70.79
2019-01-31T07:48:50.645Z,70.91
2019-01-31T07:51:56.501Z,71.33
2019-01-31T07:55:02.419Z,71.61
2019-01-31T07:58:08.345Z,71.72
2019-01-31T08:01:14.417Z,71.30
2019-01-31T08:04:20.270Z,71.00
2019-01-31T08:07:28.746Z,70.80
2019-01-31T08:10:37.948Z,70.67
2019-01-31T08:13:43.783Z,70.02
2019-01-31T08:16:49.658Z,70.69
2019-01-31T08:19:55.511Z,70.51
2019-01-31T08:23:01.569Z,71.12
2019-01-31T08:26:08.555Z,71.16
2019-01-31T08:29:14.589Z,72.10
2019-01-31T08:32:20.558Z,71.85
2019-01-31T08:35:26.512Z,71.63
2019-01-31T08:38:32.364Z,72.61
2019-01-31T08:41:38.316Z,71.06
2019-01-31T08:44:44.274Z,71.68
2019-01-31T08:47:50.306Z,70.59
2019-01-31T08:50:56.327Z,70.80
2019-01-31T08:54:02.209Z,71.18
2019-01-31T08:57:08.224Z,70.40
2019-01-31T09:00:22.730Z,68.56
2019-01-31T09:03:28.712Z,69.92
2019-01-31T09:06:34.679Z,68.63
2019-01-31T09:09:41.658Z,69.76
2019-01-31T09:12:47.655Z,69.15
2019-01-31T09:15:53.513Z,69.67
2019-01-31T09:18:59.293Z,70.25
2019-01-31T09:22:14.589Z,69.55
2019-01-31T09:25:52.555Z,70.08
2019-01-31T09:29:31.732Z,70.53
2019-01-31T09:33:28.853Z,70.80
2019-01-31T09:37:18.334Z,70.66
2019-01-31T09:40:54.175Z,71.62
2019-01-31T09:44:48.574Z,71.21
2019-01-31T09:48:34.543Z,71.18
2019-01-31T09:52:17.759Z,72.07
2019-01-31T09:55:57.307Z,71.75
2019-01-31T09:59:49.678Z,71.00
2019-01-31T10:03:34.707Z,70.30
2019-01-31T10:07:26.031Z,70.90
2019-01-31T10:11:14.522Z,69.99
2019-01-31T10:14:53.081Z,70.01
2019-01-31T10:18:24.626Z,72.85
2019-01-31T10:22:18.852Z,73.03
2019-01-31T10:26:11.139Z,71.97
2019-01-31T10:30:05.452Z,72.53
2019-01-31T10:33:42.434Z,71.54
2019-01-31T10:37:34.431Z,73.16
2019-01-31T10:41:12.954Z,74.06
2019-01-31T10:44:53.063Z,72.85
2019-01-31T10:48:44.178Z,71.20
2019-01-31T10:52:38.998Z,73.46
2019-01-31T10:56:19.726Z,72.30
2019-01-31T11:00:21.241Z,72.88
2019-01-31T11:04:15.425Z,72.55
2019-01-31T11:08:02.248Z,73.94
2019-01-31T11:11:24.684Z,71.63
2019-01-31T11:15:01.519Z,72.54
2019-01-31T11:18:48.815Z,73.92
2019-01-31T11:22:40.093Z,72.12
2019-01-31T11:26:35.598Z,72.10
2019-01-31T11:30:18.028Z,71.78
2019-01-31T11:34:14.702Z,71.91
2019-01-31T11:37:41.821Z,72.22
2019-01-31T11:41:31.384Z,74.79
2019-01-31T11:45:26.981Z,73.71
2019-01-31T11:49:09.395Z,72.40
2019-01-31T11:53:01.314Z,72.92
2019-01-31T11:56:28.243Z,73.03
2019-01-31T11:59:34.051Z,72.17
2019-01-31T12:02:39.990Z,71.41
2019-01-31T12:05:45.927Z,70.47
2019-01-31T12:08:51.725Z,69.34
2019-01-31T12:11:57.665Z,70.52
2019-01-31T12:15:03.673Z,70.60
2019-01-31T12:18:10.318Z,71.03
2019-01-31T12:21:16.259Z,70.40
2019-01-31T12:24:22.171Z,69.57
2019-01-31T12:27:28.082Z,71.75
2019-01-31T12:30:33.957Z,69.75
2019-01-31T12:33:39.785Z,69.14
2019-01-31T12:36:45.785Z,69.18
2019-01-31T12:39:52.186Z,68.37
2019-01-31T12:42:58.263Z,67.84
2019-01-31T12:46:04.358Z,68.41
2019-01-31T12:49:10.324Z,69.52
2019-01-31T12:52:16.251Z,70.12
2019-01-31T12:55:22.203Z,69.02
2019-01-31T12:58:33.750Z,68.50
2019-01-31T13:01:35.992Z,68.35
2019-01-31T13:04:41.998Z,68.34
2019-01-31T13:07:48.119Z,68.85
2019-01-31T13:10:54.056Z,68.51
2019-01-31T13:13:59.957Z,70.31
2019-01-31T13:17:07.260Z,70.18
2019-01-31T13:20:19.184Z,70.43
2019-01-31T13:23:25.282Z,69.86
2019-01-31T13:26:31.168Z,69.60
2019-01-31T13:29:37.017Z,69.83
2019-01-31T13:32:43.003Z,70.19
2019-01-31T13:35:49.573Z,71.18
2019-01-31T13:38:55.916Z,71.68
2019-01-31T13:42:01.840Z,70.49
2019-01-31T13:45:09.153Z,70.08
2019-01-31T13:48:16.620Z,70.17
2019-01-31T13:51:22.394Z,70.37
2019-01-31T13:54:28.690Z,70.87
2019-01-31T13:57:34.589Z,71.52
2019-01-31T14:00:40.571Z,70.37
2019-01-31T14:03:46.422Z,69.69
2019-01-31T14:06:52.529Z,69.62
2019-01-31T14:09:58.388Z,69.65
2019-01-31T14:13:04.383Z,69.40
2019-01-31T14:16:10.456Z,69.02
2019-01-31T14:19:16.432Z,69.21
2019-01-31T14:22:22.377Z,70.16
2019-01-31T14:25:28.453Z,70.00
2019-01-31T14:28:34.580Z,69.31
2019-01-31T14:31:40.520Z,69.56
2019-01-31T14:34:46.407Z,70.69
2019-01-31T14:37:52.373Z,69.75
2019-01-31T14:40:58.313Z,70.06
2019-01-31T14:44:04.595Z,71.45
2019-01-31T14:47:10.482Z,70.84
2019-01-31T14:50:20.356Z,70.53
2019-01-31T14:53:26.337Z,70.90
2019-01-31T14:56:32.189Z,71.55
2019-01-31T14:59:38.084Z,71.61
2019-01-31T15:02:43.954Z,71.77
2019-01-31T15:05:49.836Z,72.35
2019-01-31T15:08:55.760Z,71.85
2019-01-31T15:12:01.787Z,72.31
2019-01-31T15:15:08.819Z,72.28
2019-01-31T15:18:14.918Z,72.80
2019-01-31T15:21:20.944Z,72.54
2019-01-31T15:24:27.488Z,72.25
2019-01-31T15:27:33.477Z,72.09
2019-01-31T15:30:39.563Z,71.96
2019-01-31T15:33:45.401Z,71.76
2019-01-31T15:36:51.395Z,72.64
2019-01-31T15:39:59.449Z,71.77
2019-01-31T15:43:05.481Z,72.20
2019-01-31T15:46:11.509Z,72.55
2019-01-31T15:49:18.685Z,72.79
2019-01-31T15:52:24.670Z,72.50
2019-01-31T15:55:30.808Z,72.27
2019-01-31T15:58:36.896Z,72.06
2019-01-31T16:01:42.754Z,72.62
2019-01-31T16:04:48.779Z,72.85
2019-01-31T16:07:54.750Z,72.68
2019-01-31T16:11:00.766Z,72.77
2019-01-31T16:14:07.006Z,72.20
2019-01-31T16:17:13.108Z,72.45
2019-01-31T16:20:19.107Z,73.94
2019-01-31T16:23:25.236Z,73.10
2019-01-31T16:26:31.244Z,74.10
2019-01-31T16:29:37.104Z,72.76
2019-01-31T16:32:43.060Z,72.99
2019-01-31T16:35:49.726Z,73.46
2019-01-31T16:38:55.686Z,73.16
2019-01-31T16:42:01.665Z,72.49
2019-01-31T16:45:09.698Z,73.71
2019-01-31T16:48:15.702Z,72.51
2019-01-31T16:51:21.676Z,72.47
2019-01-31T16:54:27.648Z,72.19
2019-01-31T16:57:33.626Z,72.24
2019-01-31T17:00:39.683Z,71.97
2019-01-31T17:03:45.650Z,72.81
2019-01-31T17:06:51.607Z,72.35
2019-01-31T17:09:57.814Z,72.04
2019-01-31T17:13:04.319Z,71.62
2019-01-31T17:16:11.183Z,71.29
2019-01-31T17:19:17.283Z,72.50
2019-01-31T17:22:23.284Z,72.36
2019-01-31T17:25:29.343Z,72.65
2019-01-31T17:28:35.303Z,71.92
2019-01-31T17:31:41.411Z,72.50
2019-01-31T17:34:47.272Z,72.37
2019-01-31T17:37:53.241Z,72.69
2019-01-31T17:40:59.196Z,72.49
2019-01-31T17:44:05.346Z,72.36
2019-01-31T17:47:11.330Z,72.34
2019-01-31T17:50:17.697Z,73.01
2019-01-31T17:53:23.573Z,72.37
2019-01-31T17:56:29.444Z,72.17
2019-01-31T17:59:35.382Z,72.52
2019-01-31T18:02:45.501Z,72.65
2019-01-31T18:05:49.049Z,73.13
2019-01-31T18:08:54.874Z,73.50
2019-01-31T18:12:00.744Z,73.58
2019-01-31T18:15:07.695Z,73.44
2019-01-31T18:18:13.726Z,73.21
2019-01-31T18:21:19.659Z,72.95
2019-01-31T18:24:25.498Z,73.53
2019-01-31T18:27:31.355Z,72.85
2019-01-31T18:30:37.412Z,72.08
2019-01-31T18:33:43.233Z,71.50
2019-01-31T18:36:49.214Z,71.11
2019-01-31T18:39:55.092Z,71.06
2019-01-31T18:43:00.945Z,71.06
2019-01-31T18:46:07.129Z,71.11
2019-01-31T18:49:15.025Z,71.22
2019-01-31T18:52:20.968Z,71.71
2019-01-31T18:55:27.727Z,71.04
2019-01-31T18:58:33.574Z,70.26
2019-01-31T19:01:43.573Z,70.17
2019-01-31T19:04:49.524Z,69.82
2019-01-31T19:07:55.864Z,70.04
2019-01-31T19:11:02.064Z,69.98
2019-01-31T19:14:08.053Z,69.78
2019-01-31T19:17:13.988Z,69.58
2019-01-31T19:20:27.831Z,69.29
2019-01-31T19:23:33.794Z,68.33
2019-01-31T19:26:39.658Z,68.84
2019-01-31T19:29:49.444Z,69.40
2019-01-31T19:32:55.515Z,68.70
2019-01-31T19:36:01.347Z,68.34
2019-01-31T19:39:17.843Z,67.99
2019-01-31T19:42:25.556Z,67.29
2019-01-31T19:45:43.243Z,66.61
2019-01-31T19:48:57.171Z,66.55
2019-01-31T19:52:03.856Z,66.60
2019-01-31T19:55:11.722Z,67.00
2019-01-31T19:58:17.574Z,67.46
2019-01-31T20:01:23.437Z,67.24
2019-01-31T20:04:30.479Z,68.07
2019-01-31T20:07:36.546Z,67.23
2019-01-31T20:10:42.607Z,66.60
2019-01-31T20:13:48.665Z,66.33
2019-01-31T20:16:54.658Z,66.29
2019-01-31T20:20:00.544Z,64.83
2019-01-31T20:23:07.394Z,65.18
2019-01-31T20:26:13.361Z,63.29
2019-01-31T20:29:19.430Z,62.78
2019-01-31T20:32:25.309Z,62.59
2019-01-31T20:35:31.763Z,61.93
2019-01-31T20:38:38.048Z,62.34
2019-01-31T20:41:53.851Z,62.40
2019-01-31T20:44:52.808Z,62.39
2019-01-31T20:47:58.961Z,62.84
2019-01-31T20:51:06.005Z,62.21
2019-01-31T20:54:12.038Z,62.79
2019-01-31T20:57:17.957Z,62.09
2019-01-31T21:00:28.066Z,61.95
2019-01-31T21:03:34.021Z,62.17
2019-01-31T21:06:41.373Z,62.16
2019-01-31T21:09:47.747Z,62.21
2019-01-31T21:12:53.889Z,62.25
2019-01-31T21:15:59.852Z,61.95
2019-01-31T21:19:06.398Z,62.32
2019-01-31T21:22:12.303Z,62.72
2019-01-31T21:25:18.733Z,62.50
2019-01-31T21:28:24.544Z,61.78
2019-01-31T21:31:31.630Z,61.91
2019-01-31T21:34:38.817Z,62.37
2019-01-31T21:37:45.121Z,62.00
2019-01-31T21:40:51.066Z,61.63
2019-01-31T21:43:56.995Z,62.07
2019-01-31T21:47:03.605Z,62.56
2019-01-31T21:50:12.007Z,61.92
2019-01-31T21:53:18.011Z,61.53
2019-01-31T21:56:23.969Z,61.58
2019-01-31T21:59:29.925Z,61.71
2019-01-31T22:02:36.029Z,61.38
2019-01-31T22:05:42.011Z,61.23
2019-01-31T22:08:47.977Z,61.57
2019-01-31T22:11:53.804Z,61.11
2019-01-31T22:14:59.648Z,61.73
2019-01-31T22:18:07.320Z,61.43
2019-01-31T22:21:13.269Z,61.62
2019-01-31T22:24:19.297Z,61.56
2019-01-31T22:27:25.156Z,61.56
2019-01-31T22:30:36.559Z,61.92
2019-01-31T22:33:42.426Z,61.60
2019-01-31T22:36:48.385Z,61.92
2019-01-31T22:39:55.389Z,62.05
2019-01-31T22:43:01.548Z,60.99
2019-01-31T22:46:07.516Z,61.35
2019-01-31T22:49:13.341Z,61.07
2019-01-31T22:52:19.382Z,60.69
2019-01-31T22:55:26.422Z,60.38
2019-01-31T22:58:32.649Z,60.05
2019-01-31T23:01:44.865Z,60.52
2019-01-31T23:04:50.793Z,60.88
2019-01-31T23:07:56.843Z,60.42
2019-01-31T23:11:02.748Z,60.78
2019-01-31T23:14:08.827Z,60.49
2019-01-31T23:17:14.808Z,60.48
2019-01-31T23:20:20.650Z,60.01
2019-01-31T23:23:26.606Z,59.74
2019-01-31T23:26:32.706Z,59.64
2019-01-31T23:29:38.565Z,60.34
2019-01-31T23:32:44.614Z,60.34
2019-01-31T23:35:50.567Z,60.16
2019-01-31T23:38:57.497Z,59.51
2019-01-31T23:42:03.529Z,59.69
2019-01-31T23:45:12.061Z,60.19
2019-01-31T23:48:18.019Z,59.25
2019-01-31T23:51:24.061Z,59.15
2019-01-31T23:54:29.899Z,58.78
2019-01-31T23:57:35.927Z,58.71
